Flight Information

DEPARTURE
PHOENIX, AZ
Elevation:
1134
Runways:
7R/25L - 7800x150 - CONC-G
7L/25R - 10300x150 - CONC-G
8/26 - 11489x150 - CONC-G
ATIS:
127.575
Clearance Delivery:
118.1
Ground:
119.75 NORTH 132.55 SOUTH
Tower:
PHOENIX TOWER
120.9 RWY 7L-25R, 7R-25L
118.7 RWY 8-26
DESTINATION
,
Elevation:
TPA:
1000 (est.)


6493.3 NM77° True-13° Var64° HDG

Flight Plan:
(click to file on line)

1. Type
2. Aircraft Identification
3. Aircraft Type / Special Equipment
4. True Airspeed
kts
5. Departure Airport
(ICAO code)
6. Arriving Airport
(ICAO code)
7. Cruising Altitude
ft
8. Alternate Airport
(ICAO code)
9. Route of Flight
10. Remarks


00:00:00 Departure ATIS: Destination ATIS:

Clearance Limit:
Route:
Altitude: Expect in minutes
Frequency:
Transponder: (7500 Hijack / 7600 Lost Comms / 7700 Emergency)


KPHX 010651Z 30004KT 10SM BKN160 BKN180 22/04 A2983 RMK AO2 SLP088 T02170039 402610128
Time: 2020-04-01T06:51:00Z
1585726208
Winds: 300 @ 4 kts
Visibility: 10.0 sm
Clouds (AGL): BKN 16000
BKN 18000
Temperature: 21.7 C
Dew Point: 3.9 C
Pressure: 29.828741 in Hgbr


Notes:

Data extracted from FAA Digital Chart Supplement. Effective: 0901Z Thursday, Mar 26, 2020 to 0901Z Thursday, May 21, 2020
Current ATIS data is provided courtisy of PilotEdge.